createdAt,value
2022-08-28T00:01:27.736Z,7.43
2022-08-28T00:03:55.696Z,7.50
2022-08-28T00:06:23.465Z,6.43
2022-08-28T00:08:51.304Z,4.63
2022-08-28T00:11:19.712Z,6.20
2022-08-28T00:13:49.196Z,7.80
2022-08-28T00:16:18.954Z,4.57
2022-08-28T00:18:47.246Z,8.05
2022-08-28T00:21:15.263Z,6.53
2022-08-28T00:23:43.561Z,6.20
2022-08-28T00:26:33.011Z,4.53
2022-08-28T00:29:01.337Z,4.60
2022-08-28T00:31:29.224Z,6.18
2022-08-28T00:33:57.035Z,6.68
2022-08-28T00:36:24.945Z,6.57
2022-08-28T00:38:52.748Z,8.70
2022-08-28T00:41:27.460Z,6.15
2022-08-28T00:44:10.892Z,5.15
2022-08-28T00:46:39.117Z,5.80
2022-08-28T00:49:08.000Z,5.70
2022-08-28T00:51:54.683Z,4.68
2022-08-28T00:54:23.106Z,5.22
2022-08-28T00:56:53.337Z,4.90
2022-08-28T00:59:26.859Z,6.28
2022-08-28T01:01:57.067Z,5.10
2022-08-28T01:04:26.822Z,4.78
2022-08-28T01:06:57.185Z,5.72
2022-08-28T01:09:27.358Z,5.28
2022-08-28T01:11:58.980Z,5.75
2022-08-28T01:14:29.382Z,6.85
2022-08-28T01:16:58.326Z,6.60
2022-08-28T01:19:31.589Z,6.95
2022-08-28T01:22:09.062Z,5.82
2022-08-28T01:24:39.769Z,5.85
2022-08-28T01:27:07.630Z,6.32
2022-08-28T01:29:36.399Z,8.07
2022-08-28T01:32:05.753Z,7.47
2022-08-28T01:34:36.834Z,9.38
2022-08-28T01:37:05.524Z,8.00
2022-08-28T01:39:33.614Z,6.88
2022-08-28T01:42:03.594Z,8.18
2022-08-28T01:44:31.401Z,9.88
2022-08-28T01:46:59.726Z,7.05
2022-08-28T01:49:29.477Z,8.73
2022-08-28T01:51:59.106Z,7.32
2022-08-28T01:54:28.822Z,7.97
2022-08-28T01:56:56.634Z,7.55
2022-08-28T01:59:25.773Z,7.68
2022-08-28T02:01:54.752Z,10.80
2022-08-28T02:04:23.070Z,7.20
2022-08-28T02:06:59.641Z,7.63
2022-08-28T02:09:27.406Z,8.05
2022-08-28T02:11:55.668Z,9.35
2022-08-28T02:14:24.807Z,7.53
2022-08-28T02:16:53.092Z,6.82
2022-08-28T02:19:21.116Z,8.75
2022-08-28T02:21:49.299Z,6.55
2022-08-28T02:24:17.520Z,9.45
2022-08-28T02:26:45.837Z,6.50
2022-08-28T02:29:13.816Z,6.25
2022-08-28T02:31:42.943Z,6.45
2022-08-28T02:34:11.434Z,8.10
2022-08-28T02:36:41.596Z,7.20
2022-08-28T02:39:09.566Z,6.10
2022-08-28T02:41:37.641Z,6.43
2022-08-28T02:44:05.434Z,7.57
2022-08-28T02:46:33.409Z,6.97
2022-08-28T02:49:02.711Z,6.88
2022-08-28T02:51:34.724Z,9.38
2022-08-28T02:54:02.628Z,8.95
2022-08-28T02:56:31.024Z,6.47
2022-08-28T02:58:58.834Z,9.25
2022-08-28T03:01:26.751Z,7.45
2022-08-28T03:03:54.944Z,8.50
2022-08-28T03:06:24.169Z,6.70
2022-08-28T03:08:51.968Z,10.65
2022-08-28T03:11:19.891Z,8.45
2022-08-28T03:13:47.929Z,9.05
2022-08-28T03:16:16.919Z,8.40
2022-08-28T03:18:44.856Z,7.88
2022-08-28T03:21:13.059Z,10.93
2022-08-28T03:23:42.213Z,8.52
2022-08-28T03:26:12.625Z,8.38
2022-08-28T03:28:43.067Z,8.45
2022-08-28T03:31:13.979Z,7.85
2022-08-28T03:33:42.782Z,9.35
2022-08-28T03:36:11.468Z,8.75
2022-08-28T03:38:39.333Z,8.73
2022-08-28T03:41:14.184Z,8.93
2022-08-28T03:43:42.412Z,10.00
2022-08-28T03:46:15.885Z,8.73
2022-08-28T03:48:44.980Z,8.32
2022-08-28T03:51:14.717Z,7.70
2022-08-28T03:53:43.485Z,8.77
2022-08-28T03:56:15.457Z,7.22
2022-08-28T03:58:44.250Z,9.75
2022-08-28T04:01:12.303Z,10.27
2022-08-28T04:03:42.806Z,9.75
2022-08-28T04:06:10.676Z,8.48
2022-08-28T04:08:38.953Z,10.15
2022-08-28T04:11:07.313Z,9.55
2022-08-28T04:13:36.585Z,9.65
2022-08-28T04:16:07.855Z,10.32
2022-08-28T04:18:35.756Z,9.65
2022-08-28T04:21:06.067Z,8.02
2022-08-28T04:23:33.845Z,10.05
2022-08-28T04:26:01.770Z,8.75
2022-08-28T04:28:29.535Z,11.40
2022-08-28T04:30:58.713Z,8.65
2022-08-28T04:33:28.271Z,10.65
2022-08-28T04:35:56.573Z,9.57
2022-08-28T04:38:24.811Z,11.73
2022-08-28T04:40:52.549Z,9.95
2022-08-28T04:43:21.287Z,10.48
2022-08-28T04:45:49.214Z,10.27
2022-08-28T04:48:19.050Z,11.88
2022-08-28T04:50:48.553Z,10.25
2022-08-28T04:53:18.546Z,11.23
2022-08-28T04:55:54.434Z,11.27
2022-08-28T04:58:24.234Z,10.82
2022-08-28T05:00:53.939Z,10.27
2022-08-28T05:03:24.068Z,12.80
2022-08-28T05:05:53.887Z,9.70
2022-08-28T05:08:26.865Z,14.50
2022-08-28T05:10:55.047Z,13.32
2022-08-28T05:13:23.780Z,11.15
2022-08-28T05:15:53.788Z,11.73
2022-08-28T05:18:25.500Z,10.35
2022-08-28T05:20:53.293Z,11.93
2022-08-28T05:23:22.129Z,9.60
2022-08-28T05:25:53.399Z,12.27
2022-08-28T05:28:21.817Z,16.58
2022-08-28T05:30:49.555Z,12.32
2022-08-28T05:33:20.037Z,15.02
2022-08-28T05:35:49.229Z,14.68
2022-08-28T05:38:17.720Z,17.33
2022-08-28T05:40:47.872Z,17.35
2022-08-28T05:43:17.705Z,18.20
2022-08-28T05:45:45.742Z,16.70
2022-08-28T05:48:14.419Z,17.27
2022-08-28T05:50:47.205Z,13.90
2022-08-28T05:53:18.037Z,14.57
2022-08-28T05:55:51.732Z,13.27
2022-08-28T05:58:33.464Z,19.13
2022-08-28T06:01:09.784Z,19.23
2022-08-28T06:03:38.231Z,17.83
2022-08-28T06:06:06.490Z,18.48
2022-08-28T06:08:35.921Z,16.13
2022-08-28T06:11:05.266Z,21.33
2022-08-28T06:13:35.676Z,14.40
2022-08-28T06:16:05.485Z,18.38
2022-08-28T06:18:35.913Z,18.95
2022-08-28T06:21:03.771Z,17.02
2022-08-28T06:23:31.991Z,14.75
2022-08-28T06:26:01.350Z,17.27
2022-08-28T06:28:29.293Z,14.30
2022-08-28T06:31:22.998Z,19.23
2022-08-28T06:33:46.152Z,16.13
2022-08-28T06:36:14.066Z,14.77
2022-08-28T06:38:46.363Z,15.77
2022-08-28T06:41:16.205Z,14.98
2022-08-28T06:43:44.254Z,15.48
2022-08-28T06:46:12.092Z,16.75
2022-08-28T06:48:40.113Z,20.40
2022-08-28T06:51:09.542Z,17.02
2022-08-28T06:53:38.599Z,15.52
2022-08-28T06:56:08.746Z,23.38
2022-08-28T06:58:40.588Z,23.65
2022-08-28T07:01:14.313Z,25.63
2022-08-28T07:03:44.210Z,29.52
2022-08-28T07:06:14.373Z,29.10
2022-08-28T07:08:43.495Z,26.50
2022-08-28T07:11:14.355Z,34.42
2022-08-28T07:13:44.992Z,27.63
2022-08-28T07:16:14.191Z,27.67
2022-08-28T07:18:42.165Z,32.15
2022-08-28T07:21:12.430Z,28.23
2022-08-28T07:23:42.102Z,26.33
2022-08-28T07:26:13.431Z,31.35
2022-08-28T07:28:41.656Z,34.50
2022-08-28T07:31:14.405Z,30.15
2022-08-28T07:33:42.593Z,32.10
2022-08-28T07:36:16.063Z,32.40
2022-08-28T07:38:59.904Z,30.17
2022-08-28T07:41:30.368Z,33.88
2022-08-28T07:44:16.183Z,34.20
2022-08-28T07:46:48.044Z,44.00
2022-08-28T07:49:17.205Z,40.25
2022-08-28T07:51:46.657Z,39.30
2022-08-28T07:54:17.890Z,38.33
2022-08-28T07:56:46.741Z,41.70
2022-08-28T07:59:17.481Z,38.42
2022-08-28T08:01:50.665Z,42.47
2022-08-28T08:04:21.313Z,45.05
2022-08-28T08:06:52.321Z,47.45
2022-08-28T08:09:23.567Z,45.58
2022-08-28T08:11:51.420Z,50.67
2022-08-28T08:14:19.306Z,42.33
2022-08-28T08:16:49.496Z,58.20
2022-08-28T08:19:19.563Z,60.15
2022-08-28T08:21:54.932Z,34.35
2022-08-28T08:24:26.022Z,27.60
2022-08-28T08:26:59.912Z,44.58
2022-08-28T08:29:29.928Z,31.27
2022-08-28T08:32:04.949Z,25.88
2022-08-28T08:34:33.571Z,32.92
2022-08-28T08:37:01.573Z,40.92
2022-08-28T08:39:29.488Z,38.30
2022-08-28T08:42:02.000Z,36.17
2022-08-28T08:44:34.379Z,42.13
2022-08-28T08:47:14.828Z,35.90
2022-08-28T08:49:48.789Z,34.33
2022-08-28T08:52:38.188Z,32.72
2022-08-28T08:55:20.446Z,27.80
2022-08-28T08:57:54.427Z,34.58
2022-08-28T09:00:22.206Z,42.58
2022-08-28T09:02:58.129Z,40.38
2022-08-28T09:05:40.754Z,32.13
2022-08-28T09:08:13.501Z,41.97
2022-08-28T09:10:51.939Z,39.38
2022-08-28T09:13:29.245Z,50.33
2022-08-28T09:15:57.045Z,44.20
2022-08-28T09:18:29.224Z,43.65
2022-08-28T09:20:59.575Z,46.83
2022-08-28T09:23:30.086Z,43.72
2022-08-28T09:26:01.771Z,42.53
2022-08-28T09:28:34.262Z,47.88
2022-08-28T09:31:05.784Z,43.28
2022-08-28T09:33:41.585Z,42.67
2022-08-28T09:36:30.275Z,47.35
2022-08-28T09:39:12.377Z,42.78
2022-08-28T09:42:04.567Z,42.80
2022-08-28T09:44:32.652Z,56.10
2022-08-28T09:47:00.777Z,54.55
2022-08-28T09:49:31.453Z,65.40
2022-08-28T09:52:01.680Z,49.10
2022-08-28T09:54:35.271Z,61.08
2022-08-28T09:57:04.536Z,40.38
2022-08-28T09:59:32.716Z,49.20
2022-08-28T10:02:22.334Z,52.33
2022-08-28T10:05:03.535Z,39.47
2022-08-28T10:07:40.276Z,45.17
2022-08-28T10:10:21.210Z,40.28
2022-08-28T10:13:01.520Z,52.08
2022-08-28T10:15:43.057Z,43.38
2022-08-28T10:18:30.039Z,42.67
2022-08-28T10:21:09.395Z,37.15
2022-08-28T10:23:50.209Z,40.30
2022-08-28T10:26:34.632Z,35.78
2022-08-28T10:29:19.945Z,42.58
2022-08-28T10:31:56.164Z,39.63
2022-08-28T10:34:39.771Z,38.70
2022-08-28T10:37:21.799Z,38.75
2022-08-28T10:39:55.201Z,53.63
2022-08-28T10:42:35.711Z,56.63
2022-08-28T10:45:09.532Z,71.40
2022-08-28T10:47:41.887Z,57.90
2022-08-28T10:50:15.557Z,55.78
2022-08-28T10:52:49.057Z,50.35
2022-08-28T10:55:21.989Z,58.53
2022-08-28T10:57:54.291Z,55.60
2022-08-28T11:00:27.568Z,56.47
2022-08-28T11:02:58.380Z,57.15
2022-08-28T11:05:31.216Z,60.85
2022-08-28T11:08:04.116Z,51.88
2022-08-28T11:10:56.902Z,59.55
2022-08-28T11:13:45.855Z,63.25
2022-08-28T11:16:20.781Z,68.40
2022-08-28T11:19:24.969Z,68.13
2022-08-28T11:21:57.407Z,56.83
2022-08-28T11:24:44.517Z,65.15
2022-08-28T11:27:25.505Z,53.08
2022-08-28T11:30:27.509Z,65.85
2022-08-28T11:33:08.476Z,73.57
2022-08-28T11:35:53.859Z,60.15
2022-08-28T11:39:03.595Z,58.28
2022-08-28T11:41:35.244Z,59.85
2022-08-28T11:44:25.658Z,64.88
2022-08-28T11:47:16.535Z,54.70
2022-08-28T11:49:46.371Z,58.00
2022-08-28T11:52:41.514Z,56.88
2022-08-28T11:55:20.516Z,55.05
2022-08-28T12:00:50.394Z,49.33
2022-08-28T12:03:27.587Z,60.20
2022-08-28T12:05:58.055Z,51.17
2022-08-28T12:09:11.756Z,59.75
2022-08-28T12:11:57.218Z,58.55
2022-08-28T12:15:10.512Z,55.05
2022-08-28T12:17:51.912Z,49.92
2022-08-28T12:20:37.761Z,54.45
2022-08-28T12:23:34.731Z,52.08
2022-08-28T12:26:06.138Z,50.80
2022-08-28T12:28:40.175Z,51.38
2022-08-28T12:31:45.606Z,56.63
2022-08-28T12:34:25.209Z,54.83
2022-08-28T12:37:01.237Z,50.50
2022-08-28T12:39:32.277Z,44.42
2022-08-28T12:42:02.500Z,45.80
2022-08-28T12:44:33.131Z,42.05
2022-08-28T12:47:01.478Z,39.88
2022-08-28T12:49:34.612Z,42.85
2022-08-28T12:52:17.158Z,39.92
2022-08-28T12:54:46.163Z,38.97
2022-08-28T12:57:16.206Z,32.92
2022-08-28T12:59:46.207Z,35.30
2022-08-28T13:02:24.378Z,37.50
2022-08-28T13:04:58.612Z,37.92
2022-08-28T13:07:30.262Z,37.08
2022-08-28T13:10:01.000Z,36.95
2022-08-28T13:12:54.654Z,39.28
2022-08-28T13:15:47.742Z,34.47
2022-08-28T13:18:42.318Z,34.65
2022-08-28T13:21:32.896Z,33.50
2022-08-28T13:24:22.966Z,32.53
2022-08-28T13:27:00.627Z,35.15
2022-08-28T13:29:28.808Z,31.67
2022-08-28T13:31:59.899Z,35.78
2022-08-28T13:34:29.989Z,36.40
2022-08-28T13:37:00.858Z,37.42
2022-08-28T13:39:30.895Z,32.60
2022-08-28T13:42:02.373Z,31.95
2022-08-28T13:44:34.237Z,33.45
2022-08-28T13:47:04.267Z,33.72
2022-08-28T13:49:32.105Z,34.97
2022-08-28T13:52:02.748Z,33.35
2022-08-28T13:54:31.504Z,35.17
2022-08-28T13:56:59.710Z,35.88
2022-08-28T13:59:28.189Z,31.92
2022-08-28T14:02:16.542Z,34.90
2022-08-28T14:04:44.835Z,30.65
2022-08-28T14:07:15.211Z,29.20
2022-08-28T14:09:43.531Z,30.88
2022-08-28T14:12:12.089Z,24.98
2022-08-28T14:14:40.123Z,24.58
2022-08-28T14:17:09.753Z,23.98
2022-08-28T14:19:38.366Z,24.95
2022-08-28T14:22:06.304Z,20.65
2022-08-28T14:24:35.499Z,22.88
2022-08-28T14:27:03.619Z,20.23
2022-08-28T14:29:32.025Z,23.67
2022-08-28T14:32:01.743Z,22.88
2022-08-28T14:34:29.615Z,19.60
2022-08-28T14:36:57.320Z,21.42
2022-08-28T14:39:27.286Z,22.20
2022-08-28T14:41:57.076Z,23.33
2022-08-28T14:44:25.940Z,21.30
2022-08-28T14:46:56.105Z,22.23
2022-08-28T14:49:26.439Z,21.90
2022-08-28T14:51:55.068Z,21.88
2022-08-28T14:54:25.151Z,20.92
2022-08-28T14:56:54.661Z,23.05
2022-08-28T14:59:27.443Z,22.75
2022-08-28T15:01:58.068Z,20.23
2022-08-28T15:04:34.262Z,18.48
2022-08-28T15:07:06.032Z,20.85
2022-08-28T15:09:37.639Z,22.83
2022-08-28T15:12:05.951Z,19.48
2022-08-28T15:14:39.946Z,19.13
2022-08-28T15:17:10.954Z,17.90
2022-08-28T15:19:38.754Z,17.55
2022-08-28T15:22:06.664Z,18.50
2022-08-28T15:24:40.509Z,17.00
2022-08-28T15:27:08.246Z,19.73
2022-08-28T15:29:40.872Z,16.90
2022-08-28T15:32:08.638Z,16.98
2022-08-28T15:34:36.441Z,19.02
2022-08-28T15:37:04.116Z,18.13
2022-08-28T15:39:53.055Z,16.70
2022-08-28T15:42:20.905Z,15.77
2022-08-28T15:44:50.144Z,12.18
2022-08-28T15:47:17.942Z,12.40
2022-08-28T15:49:48.762Z,11.80
2022-08-28T15:52:20.610Z,12.85
2022-08-28T15:54:49.569Z,11.55
2022-08-28T15:57:20.349Z,11.23
2022-08-28T15:59:50.647Z,12.50
2022-08-28T16:02:23.084Z,12.05
2022-08-28T16:04:51.404Z,11.40
2022-08-28T16:07:21.167Z,12.40
2022-08-28T16:09:49.290Z,11.57
2022-08-28T16:12:17.294Z,11.02
2022-08-28T16:14:45.560Z,11.50
2022-08-28T16:17:13.567Z,11.50
2022-08-28T16:19:43.642Z,11.32
2022-08-28T16:22:12.970Z,11.38
2022-08-28T16:24:40.795Z,28.42
2022-08-28T16:27:14.624Z,40.00
2022-08-28T16:29:43.422Z,29.63
2022-08-28T16:32:12.538Z,10.60
2022-08-28T16:34:40.496Z,26.23
2022-08-28T16:37:18.604Z,12.68
2022-08-28T16:39:49.447Z,20.45
2022-08-28T16:42:17.280Z,17.33
2022-08-28T16:44:45.070Z,12.98
2022-08-28T16:47:13.170Z,20.02
2022-08-28T16:49:42.755Z,13.85
2022-08-28T16:52:10.537Z,9.77
2022-08-28T16:54:48.570Z,9.07
2022-08-28T16:57:16.698Z,10.02
2022-08-28T16:59:44.457Z,14.57
2022-08-28T17:02:13.262Z,30.25
2022-08-28T17:04:41.265Z,26.65
2022-08-28T17:07:09.036Z,28.23
2022-08-28T17:09:36.806Z,17.60
2022-08-28T17:12:06.830Z,12.73
2022-08-28T17:14:34.643Z,10.63
2022-08-28T17:17:02.567Z,13.05
2022-08-28T17:19:30.498Z,11.13
2022-08-28T17:22:15.520Z,13.23
2022-08-28T17:24:43.335Z,35.30
2022-08-28T17:27:16.721Z,68.47
2022-08-28T17:29:50.455Z,34.22
2022-08-28T17:32:18.305Z,81.55
2022-08-28T17:34:46.279Z,15.93
2022-08-28T17:37:14.039Z,28.38
2022-08-28T17:39:41.849Z,45.30
2022-08-28T17:42:09.663Z,38.25
2022-08-28T17:44:40.563Z,59.08
2022-08-28T17:47:08.597Z,101.00
2022-08-28T17:49:36.590Z,66.07
2022-08-28T17:52:04.715Z,26.70
2022-08-28T17:54:33.032Z,17.17
2022-08-28T17:57:01.275Z,17.80
2022-08-28T17:59:29.040Z,17.48
2022-08-28T18:01:58.188Z,18.33
2022-08-28T18:04:26.046Z,18.67
2022-08-28T18:06:54.861Z,22.05
2022-08-28T18:09:23.132Z,19.35
2022-08-28T18:11:51.293Z,22.52
2022-08-28T18:14:19.097Z,19.80
2022-08-28T18:16:47.584Z,22.65
2022-08-28T18:19:17.279Z,20.20
2022-08-28T18:21:45.574Z,20.30
2022-08-28T18:41:20.420Z,21.63
2022-08-28T18:43:48.594Z,26.27
2022-08-28T18:46:16.612Z,23.50
2022-08-28T18:48:44.484Z,24.00
2022-08-28T18:51:13.766Z,22.77
2022-08-28T18:53:43.386Z,23.05
2022-08-28T18:56:12.670Z,26.38
2022-08-28T18:58:40.962Z,21.35
2022-08-28T19:01:09.362Z,23.35
2022-08-28T19:03:37.545Z,21.98
2022-08-28T19:06:06.242Z,23.70
2022-08-28T19:08:36.177Z,22.55
2022-08-28T19:11:08.710Z,23.63
2022-08-28T19:13:37.917Z,26.35
2022-08-28T19:16:06.656Z,23.90
2022-08-28T19:18:34.669Z,21.05
2022-08-28T19:21:07.390Z,21.75
2022-08-28T19:23:35.218Z,22.52
2022-08-28T19:26:03.299Z,22.23
2022-08-28T19:28:31.100Z,24.13
2022-08-28T19:31:00.414Z,24.08
2022-08-28T19:33:28.408Z,26.58
2022-08-28T19:35:56.203Z,22.08
2022-08-28T19:38:24.970Z,23.55
2022-08-28T19:40:57.226Z,24.55
2022-08-28T19:43:25.367Z,22.90
2022-08-28T19:46:19.862Z,26.35
2022-08-28T19:48:48.546Z,21.63
2022-08-28T19:51:22.224Z,21.20
2022-08-28T19:53:57.276Z,22.27
2022-08-28T19:56:27.390Z,19.38
2022-08-28T19:58:56.548Z,22.40
2022-08-28T20:01:25.915Z,23.45
2022-08-28T20:03:53.764Z,26.00
2022-08-28T20:06:21.539Z,21.98
2022-08-28T20:08:49.392Z,23.83
2022-08-28T20:11:24.638Z,22.35
2022-08-28T20:13:53.172Z,25.60
2022-08-28T20:16:21.459Z,24.02
2022-08-28T20:18:50.984Z,21.88
2022-08-28T20:21:25.808Z,26.15
2022-08-28T20:24:06.532Z,21.27
2022-08-28T20:26:34.353Z,23.98
2022-08-28T20:29:02.272Z,21.42
2022-08-28T20:31:30.123Z,23.08
2022-08-28T20:33:59.425Z,22.75
2022-08-28T20:36:27.250Z,21.00
2022-08-28T20:38:55.031Z,23.58
2022-08-28T20:41:23.018Z,24.17
2022-08-28T20:43:50.994Z,22.08
2022-08-28T20:46:19.738Z,19.30
2022-08-28T20:48:47.639Z,20.73
2022-08-28T20:51:16.820Z,22.92
2022-08-28T20:53:45.503Z,20.15
2022-08-28T20:56:13.376Z,22.38
2022-08-28T20:58:41.270Z,18.73
2022-08-28T21:01:09.141Z,24.50
2022-08-28T21:03:36.956Z,23.55
2022-08-28T21:06:05.026Z,19.13
2022-08-28T21:08:34.198Z,21.70
2022-08-28T21:11:01.977Z,19.10
2022-08-28T21:13:29.910Z,20.73
2022-08-28T21:15:57.718Z,20.35
2022-08-28T21:18:25.691Z,24.92
2022-08-28T21:20:55.984Z,22.48
2022-08-28T21:23:24.318Z,21.20
2022-08-28T21:25:53.457Z,20.63
2022-08-28T21:28:21.195Z,22.98
2022-08-28T21:30:49.172Z,19.67
2022-08-28T21:33:16.973Z,20.23
2022-08-28T21:35:45.766Z,19.00
2022-08-28T21:38:13.767Z,18.15
2022-08-28T21:40:42.595Z,25.95
2022-08-28T21:43:12.261Z,19.60
2022-08-28T21:45:40.085Z,21.25
2022-08-28T21:48:11.021Z,21.90
2022-08-28T21:50:38.826Z,20.83
2022-08-28T21:53:07.046Z,21.40
2022-08-28T21:55:34.805Z,21.08
2022-08-28T21:58:02.599Z,19.77
2022-08-28T22:00:31.765Z,19.88
2022-08-28T22:02:59.566Z,22.60
2022-08-28T22:05:32.015Z,19.67
2022-08-28T22:07:59.814Z,23.60
2022-08-28T22:10:27.616Z,19.67
2022-08-28T22:12:55.388Z,19.05
2022-08-28T22:15:25.851Z,21.35
2022-08-28T22:17:55.137Z,23.02
2022-08-28T22:20:22.915Z,22.20
2022-08-28T22:23:07.910Z,21.52
2022-08-28T22:25:41.064Z,18.40
2022-08-28T22:28:10.482Z,20.63
2022-08-28T22:30:39.504Z,18.98
2022-08-28T22:33:10.716Z,21.42
2022-08-28T22:35:38.549Z,20.80
2022-08-28T22:38:06.731Z,18.13
2022-08-28T22:40:34.671Z,22.58
2022-08-28T22:43:02.535Z,16.25
2022-08-28T22:45:31.171Z,20.27
2022-08-28T22:47:58.958Z,23.67
2022-08-28T22:50:28.141Z,22.27
2022-08-28T22:52:56.298Z,21.40
2022-08-28T22:55:24.986Z,16.80
2022-08-28T22:57:54.323Z,20.33
2022-08-28T23:09:08.097Z,17.80
2022-08-28T23:11:36.978Z,19.85
2022-08-28T23:14:04.925Z,19.02
2022-08-28T23:16:33.579Z,19.45
2022-08-28T23:19:08.859Z,18.60
2022-08-28T23:21:42.685Z,19.85
2022-08-28T23:24:12.730Z,17.85
2022-08-28T23:26:40.912Z,21.13
2022-08-28T23:29:08.807Z,19.30
2022-08-28T23:31:37.302Z,18.48
2022-08-28T23:34:05.937Z,20.10
2022-08-28T23:36:35.870Z,24.08
2022-08-28T23:39:06.296Z,20.77
2022-08-28T23:41:34.754Z,19.30
2022-08-28T23:44:07.786Z,19.60
2022-08-28T23:46:36.674Z,19.60
2022-08-28T23:49:08.884Z,17.80
2022-08-28T23:51:36.664Z,19.58
2022-08-28T23:54:06.089Z,17.42
2022-08-28T23:56:33.990Z,17.80
2022-08-28T23:59:01.770Z,22.02
